Time;durP1;ratioP1;P1;durP2;ratioP2;P2;SDS_P1;SDS_P2;PMS_P1;PMS_P2;Temp;Humidity;BMP_temperature;BMP_pressure;BME280_temperature;BME280_humidity;BME280_pressure;Samples;Min_cycle;Max_cycle;Signal;HPM_P1;HPM_P2
2022/01/27 00:01:47;;;;;;;1.73;1.63;;;3.50;99.90;;;;;;5073555;28;20412;-72
2022/01/27 00:04:02;;;;;;;1.50;1.43;;;3.40;99.90;;;;;;5050111;28;20205;-72
2022/01/27 00:06:30;;;;;;;1.40;1.30;;;3.50;99.90;;;;;;5073587;28;20442;-72
2022/01/27 00:09:01;;;;;;;2.20;2.10;;;3.50;99.90;;;;;;5073181;28;20613;-72
2022/01/27 00:11:27;;;;;;;1.13;1.00;;;3.50;99.90;;;;;;5073879;28;20404;-72
2022/01/27 00:13:59;;;;;;;2.00;1.20;;;3.50;99.90;;;;;;5073331;28;20416;-72
2022/01/27 00:16:28;;;;;;;2.40;1.57;;;3.50;99.90;;;;;;5073049;28;20170;-72
2022/01/27 00:18:55;;;;;;;1.27;0.83;;;3.60;99.90;;;;;;5073001;28;20420;-72
2022/01/27 00:21:26;;;;;;;0.87;0.87;;;3.60;99.90;;;;;;5073288;28;20916;-72
2022/01/27 00:23:53;;;;;;;0.70;0.70;;;3.60;99.90;;;;;;5073056;28;21041;-72
2022/01/27 00:26:19;;;;;;;1.10;0.90;;;3.40;99.90;;;;;;5072716;28;20448;-73
2022/01/27 00:28:46;;;;;;;0.70;0.60;;;3.40;99.90;;;;;;5072612;28;20428;-73
2022/01/27 00:31:13;;;;;;;3.47;3.27;;;3.30;99.90;;;;;;5072966;28;20885;-72
2022/01/27 00:33:39;;;;;;;0.93;0.93;;;3.30;99.90;;;;;;5072826;28;20426;-72
2022/01/27 00:36:06;;;;;;;0.60;0.50;;;3.20;99.90;;;;;;5072936;28;20432;-72
2022/01/27 00:38:31;;;;;;;0.77;0.77;;;3.20;99.90;;;;;;5072751;28;20870;-72
2022/01/27 00:40:57;;;;;;;0.73;0.73;;;3.10;99.90;;;;;;5072689;28;20508;-72
2022/01/27 00:43:23;;;;;;;2.50;2.30;;;3.00;99.90;;;;;;5073089;28;20468;-72
2022/01/27 00:45:49;;;;;;;0.60;0.60;;;3.10;99.90;;;;;;5072891;28;20459;-73
2022/01/27 00:48:17;;;;;;;0.63;0.63;;;3.10;99.90;;;;;;5072463;28;20627;-72
2022/01/27 00:50:46;;;;;;;2.40;2.23;;;3.10;99.90;;;;;;5072105;28;20419;-72
2022/01/27 00:53:27;;;;;;;1.03;1.00;;;3.10;99.90;;;;;;5072619;28;20452;-72
2022/01/27 00:55:53;;;;;;;0.80;0.80;;;3.10;99.90;;;;;;5072414;28;20781;-73
2022/01/27 01:01:07;;;;;;;1.73;1.57;;;3.00;99.90;;;;;;5072902;28;20423;-73
2022/01/27 01:03:38;;;;;;;2.90;2.70;;;3.00;99.90;;;;;;5076907;28;20446;-73
2022/01/27 01:06:20;;;;;;;1.63;1.53;;;3.10;99.90;;;;;;5076286;28;20462;-73
2022/01/27 01:12:02;;;;;;;0.60;0.50;;;3.00;99.90;;;;;;5076830;28;20396;-73
2022/01/27 01:14:33;;;;;;;0.70;0.70;;;3.00;99.90;;;;;;5076004;28;20469;-73
2022/01/27 01:19:48;;;;;;;0.90;0.90;;;2.80;99.90;;;;;;5076327;28;20408;-74
2022/01/27 01:33:08;;;;;;;4.20;3.90;;;2.80;99.90;;;;;;5076497;28;20416;-73
2022/01/27 01:35:50;;;;;;;0.60;0.50;;;2.80;99.90;;;;;;5075767;28;20897;-73
2022/01/27 01:38:18;;;;;;;1.00;1.00;;;2.80;99.90;;;;;;5076083;28;20489;-73
2022/01/27 01:40:46;;;;;;;1.43;1.33;;;2.70;99.90;;;;;;5075754;28;20955;-73
2022/01/27 01:43:12;;;;;;;0.60;0.50;;;2.70;99.90;;;;;;5075993;28;20542;-73
2022/01/27 01:45:37;;;;;;;1.90;1.70;;;2.80;99.90;;;;;;5075619;28;20455;-73
2022/01/27 01:48:03;;;;;;;0.70;0.60;;;2.80;99.90;;;;;;5075657;28;20201;-73
2022/01/27 01:50:29;;;;;;;0.70;0.70;;;2.90;99.90;;;;;;5075987;28;20216;-73
2022/01/27 01:52:54;;;;;;;1.63;1.53;;;2.90;99.90;;;;;;5074399;28;20415;-73
2022/01/27 01:55:20;;;;;;;0.63;0.60;;;3.00;99.90;;;;;;5073850;28;20303;-73
2022/01/27 01:57:45;;;;;;;0.70;0.70;;;3.10;99.90;;;;;;5074416;28;20186;-73
2022/01/27 02:00:13;;;;;;;0.93;0.80;;;3.10;99.90;;;;;;5074134;28;20228;-73
2022/01/27 02:02:40;;;;;;;2.20;2.10;;;3.10;99.90;;;;;;5074246;28;20565;-73
2022/01/27 02:05:06;;;;;;;2.90;2.70;;;3.00;99.90;;;;;;5074177;28;20852;-73
2022/01/27 02:07:48;;;;;;;1.83;1.73;;;3.10;99.90;;;;;;5075149;28;20421;-74
2022/01/27 02:18:21;;;;;;;2.90;1.63;;;3.00;99.90;;;;;;4985398;28;20564;-73
2022/01/27 02:20:47;;;;;;;1.43;1.33;;;3.10;99.90;;;;;;5074622;28;20860;-73
2022/01/27 02:23:12;;;;;;;1.97;1.87;;;3.10;99.90;;;;;;5074236;28;20205;-73
2022/01/27 02:25:38;;;;;;;0.67;0.63;;;3.10;99.90;;;;;;5074128;28;20807;-73
2022/01/27 02:28:05;;;;;;;2.03;1.70;;;3.10;99.90;;;;;;5073691;28;20548;-73
2022/01/27 02:30:31;;;;;;;0.60;0.50;;;3.10;99.90;;;;;;5073847;28;20173;-73
2022/01/27 02:32:58;;;;;;;1.80;1.70;;;3.10;99.90;;;;;;5074608;28;20499;-73
2022/01/27 02:35:27;;;;;;;0.80;0.80;;;3.10;99.90;;;;;;5073699;28;20502;-73
2022/01/27 02:37:53;;;;;;;0.60;0.60;;;3.00;99.90;;;;;;5073749;28;20796;-74
2022/01/27 02:40:26;;;;;;;1.00;0.90;;;2.90;99.90;;;;;;5073618;28;20407;-73
2022/01/27 02:42:53;;;;;;;0.80;0.70;;;3.00;99.90;;;;;;5073827;28;20403;-73
2022/01/27 02:45:32;;;;;;;0.60;0.57;;;2.90;99.90;;;;;;5073364;28;20558;-73
2022/01/27 02:47:58;;;;;;;1.13;1.00;;;2.90;99.90;;;;;;5073618;28;20517;-73
2022/01/27 02:50:23;;;;;;;0.77;0.77;;;2.90;99.90;;;;;;5073228;28;20515;-73
2022/01/27 02:52:49;;;;;;;1.57;1.20;;;2.90;99.90;;;;;;5036402;28;1059887;-73
2022/01/27 02:55:14;;;;;;;0.70;0.70;;;2.90;99.90;;;;;;5073841;28;20511;-73
2022/01/27 02:57:40;;;;;;;0.60;0.60;;;2.90;99.90;;;;;;5074357;28;20532;-74
2022/01/27 03:00:06;;;;;;;3.20;3.03;;;2.90;99.90;;;;;;5073901;28;20768;-73
2022/01/27 03:02:34;;;;;;;1.00;1.00;;;2.90;99.90;;;;;;5073055;28;20532;-73
2022/01/27 03:05:00;;;;;;;1.83;1.73;;;2.90;99.90;;;;;;5073362;28;20502;-74
2022/01/27 03:07:25;;;;;;;1.57;1.47;;;3.00;99.90;;;;;;5073630;28;20440;-73
2022/01/27 03:09:51;;;;;;;5.33;0.93;;;2.90;99.90;;;;;;5073842;28;20429;-73
2022/01/27 03:12:18;;;;;;;0.90;0.90;;;2.90;99.90;;;;;;5074279;28;20166;-73
2022/01/27 03:14:44;;;;;;;4.67;1.03;;;3.00;99.90;;;;;;5073973;28;20224;-74
2022/01/27 03:17:10;;;;;;;0.60;0.60;;;2.90;99.90;;;;;;5073638;28;20428;-73
2022/01/27 03:19:37;;;;;;;0.60;0.50;;;2.90;99.90;;;;;;5073729;28;20170;-73
2022/01/27 03:22:04;;;;;;;5.57;2.10;;;2.90;99.90;;;;;;5074163;28;20418;-73
2022/01/27 03:24:30;;;;;;;0.60;0.57;;;3.00;99.90;;;;;;5073178;28;20900;-73
2022/01/27 03:26:56;;;;;;;2.80;2.60;;;3.00;99.90;;;;;;5073941;28;20451;-73
2022/01/27 03:29:23;;;;;;;1.53;1.43;;;3.00;99.90;;;;;;5073894;28;20512;-73
2022/01/27 03:31:49;;;;;;;1.23;1.13;;;3.00;99.90;;;;;;5074209;28;20766;-73
2022/01/27 03:34:15;;;;;;;1.57;1.50;;;3.00;99.90;;;;;;5073606;28;20427;-73
2022/01/27 03:36:41;;;;;;;0.70;0.53;;;3.10;99.90;;;;;;5073776;28;20427;-73
2022/01/27 03:39:08;;;;;;;0.70;0.70;;;3.10;99.90;;;;;;5073624;28;20944;-73
2022/01/27 03:41:37;;;;;;;0.90;0.70;;;3.10;99.90;;;;;;5073628;28;20404;-73
2022/01/27 03:44:04;;;;;;;1.70;1.60;;;3.00;99.90;;;;;;5073582;28;20963;-73
2022/01/27 03:46:29;;;;;;;0.90;0.90;;;3.10;99.90;;;;;;5074053;28;20443;-73
2022/01/27 03:48:55;;;;;;;0.97;0.93;;;3.00;99.90;;;;;;5073645;28;20884;-73
2022/01/27 03:51:21;;;;;;;0.60;0.50;;;3.10;99.90;;;;;;5073510;28;20169;-73
2022/01/27 03:53:47;;;;;;;1.13;1.10;;;3.10;99.90;;;;;;5073650;28;20511;-74
2022/01/27 03:56:12;;;;;;;0.70;0.63;;;3.00;99.90;;;;;;5073541;28;20474;-73
2022/01/27 03:58:38;;;;;;;0.60;0.57;;;3.10;99.90;;;;;;5073933;28;20194;-73
2022/01/27 04:01:05;;;;;;;11.63;1.93;;;3.20;99.90;;;;;;5073315;28;20185;-73
2022/01/27 04:03:33;;;;;;;2.43;2.23;;;3.20;99.90;;;;;;5073731;28;20205;-73
2022/01/27 04:06:06;;;;;;;0.60;0.60;;;3.10;99.90;;;;;;5073179;28;20416;-73
2022/01/27 04:08:33;;;;;;;0.60;0.60;;;3.10;99.90;;;;;;5073525;28;20459;-73
2022/01/27 04:10:59;;;;;;;0.73;0.73;;;3.20;99.90;;;;;;5073623;28;20404;-74
2022/01/27 04:13:24;;;;;;;1.87;1.77;;;3.20;99.90;;;;;;5073317;28;20508;-73
2022/01/27 04:15:50;;;;;;;2.10;1.67;;;3.20;99.90;;;;;;5073487;28;20174;-73
2022/01/27 04:18:16;;;;;;;0.70;0.70;;;3.30;99.90;;;;;;5073982;28;20183;-73
2022/01/27 04:20:42;;;;;;;1.43;1.37;;;3.30;99.90;;;;;;5072458;28;20673;-73
2022/01/27 04:23:08;;;;;;;0.70;0.60;;;3.30;99.90;;;;;;5073295;28;20590;-73
2022/01/27 04:25:36;;;;;;;0.80;0.77;;;3.40;99.90;;;;;;5073906;28;20813;-73
2022/01/27 04:28:06;;;;;;;4.70;3.43;;;3.40;99.90;;;;;;5073534;28;20435;-73
2022/01/27 04:30:32;;;;;;;0.63;0.60;;;3.50;99.90;;;;;;5073210;28;20401;-73
2022/01/27 04:33:00;;;;;;;0.93;0.93;;;3.50;99.90;;;;;;5073560;28;20409;-73
2022/01/27 04:35:29;;;;;;;1.33;1.23;;;3.50;99.90;;;;;;5072952;28;20916;-73
2022/01/27 04:40:37;;;;;;;0.70;0.70;;;3.60;99.90;;;;;;5073154;28;20404;-73
2022/01/27 04:48:15;;;;;;;0.90;0.90;;;3.70;99.90;;;;;;5072882;28;20507;-73
2022/01/27 04:50:42;;;;;;;1.47;1.37;;;3.70;99.90;;;;;;5072136;28;20165;-73
2022/01/27 04:53:13;;;;;;;0.67;0.63;;;3.70;99.90;;;;;;5073063;28;20428;-73
2022/01/27 04:55:38;;;;;;;0.60;0.60;;;3.80;99.90;;;;;;5072690;28;20813;-73
2022/01/27 04:58:23;;;;;;;5.13;2.77;;;3.80;99.90;;;;;;5073110;28;20424;-73
2022/01/27 05:00:49;;;;;;;3.53;2.20;;;3.90;99.90;;;;;;5072604;28;20508;-73
2022/01/27 05:03:29;;;;;;;2.93;2.83;;;4.00;99.90;;;;;;5072968;28;20531;-73
2022/01/27 05:05:56;;;;;;;0.70;0.70;;;4.00;99.90;;;;;;5071540;28;20208;-73
2022/01/27 05:08:22;;;;;;;0.67;0.57;;;3.90;99.90;;;;;;5071621;28;20545;-73
2022/01/27 05:10:56;;;;;;;0.70;0.70;;;3.90;99.90;;;;;;5072666;28;20451;-73
2022/01/27 05:13:24;;;;;;;0.60;0.50;;;4.00;99.90;;;;;;5072723;28;20174;-73
2022/01/27 05:15:50;;;;;;;5.73;2.90;;;4.00;99.90;;;;;;5073222;28;20474;-73
2022/01/27 05:18:16;;;;;;;0.60;0.50;;;4.00;99.90;;;;;;5072700;28;20960;-73
2022/01/27 05:20:41;;;;;;;0.70;0.60;;;4.00;99.90;;;;;;5072084;28;20181;-74
2022/01/27 05:23:07;;;;;;;0.97;0.97;;;4.00;99.90;;;;;;5072289;28;20205;-73
2022/01/27 05:25:33;;;;;;;0.87;0.87;;;4.10;99.90;;;;;;5072493;28;20164;-73
2022/01/27 05:27:58;;;;;;;3.33;1.70;;;4.10;99.90;;;;;;5072403;28;20217;-73
2022/01/27 05:30:24;;;;;;;0.63;0.63;;;4.10;99.90;;;;;;5072222;28;20170;-73
2022/01/27 05:32:50;;;;;;;2.07;1.90;;;4.20;99.90;;;;;;5072671;28;20167;-73
2022/01/27 05:35:16;;;;;;;0.70;0.70;;;4.20;99.90;;;;;;5071110;28;20421;-74
2022/01/27 05:37:41;;;;;;;0.70;0.70;;;4.20;99.90;;;;;;5072114;28;20610;-73
2022/01/27 05:40:07;;;;;;;0.60;0.60;;;4.30;99.90;;;;;;5070921;28;20224;-72
2022/01/27 05:42:33;;;;;;;0.90;0.90;;;4.30;99.90;;;;;;5071379;28;20224;-73
2022/01/27 05:44:59;;;;;;;0.73;0.73;;;4.30;99.90;;;;;;5071341;28;20984;-72
2022/01/27 05:47:24;;;;;;;1.53;1.23;;;4.30;99.90;;;;;;5072155;28;20435;-72
2022/01/27 05:49:50;;;;;;;0.80;0.80;;;4.40;99.90;;;;;;5074647;28;20166;-73
2022/01/27 05:52:15;;;;;;;0.70;0.60;;;4.50;99.90;;;;;;5074841;28;20173;-73
2022/01/27 05:54:42;;;;;;;1.30;1.20;;;4.60;99.90;;;;;;5074706;28;20231;-73
2022/01/27 05:57:08;;;;;;;1.57;1.10;;;4.60;99.90;;;;;;5074385;28;20181;-73
2022/01/27 05:59:33;;;;;;;4.10;1.00;;;4.70;99.90;;;;;;5074695;28;20401;-73
2022/01/27 06:01:59;;;;;;;0.60;0.50;;;4.80;99.90;;;;;;5075597;28;20438;-73
2022/01/27 06:04:25;;;;;;;1.07;1.07;;;4.80;99.90;;;;;;5075578;28;20216;-74
2022/01/27 06:06:53;;;;;;;2.93;1.17;;;4.80;99.90;;;;;;5075773;28;20167;-74
2022/01/27 06:09:18;;;;;;;1.10;1.03;;;4.90;99.90;;;;;;5075541;28;20186;-74
2022/01/27 06:11:44;;;;;;;0.60;0.60;;;4.90;99.90;;;;;;5075258;28;20400;-72
2022/01/27 06:14:09;;;;;;;0.63;0.60;;;5.00;99.90;;;;;;5072841;28;20213;-73
2022/01/27 06:16:34;;;;;;;2.20;0.90;;;5.00;99.90;;;;;;5075324;28;20860;-73
2022/01/27 06:19:02;;;;;;;0.67;0.53;;;5.10;99.90;;;;;;5075500;28;20186;-73
2022/01/27 06:21:27;;;;;;;1.50;1.40;;;5.10;99.90;;;;;;5075019;28;20712;-73
2022/01/27 06:23:53;;;;;;;1.13;1.03;;;5.10;99.90;;;;;;5075600;28;20452;-73
2022/01/27 06:26:19;;;;;;;1.53;1.53;;;5.10;99.90;;;;;;5075344;28;20193;-73
2022/01/27 06:28:44;;;;;;;0.60;0.60;;;5.20;99.90;;;;;;5075601;28;20194;-73
2022/01/27 06:31:10;;;;;;;0.67;0.50;;;5.20;99.90;;;;;;5074836;28;20186;-73
2022/01/27 06:33:35;;;;;;;2.10;1.90;;;5.30;99.90;;;;;;5075395;28;20190;-74
2022/01/27 06:36:01;;;;;;;4.20;1.07;;;5.30;99.90;;;;;;5074737;28;20540;-72
2022/01/27 06:38:26;;;;;;;0.60;0.60;;;5.30;99.90;;;;;;5074022;28;20208;-72
2022/01/27 06:40:52;;;;;;;2.87;1.37;;;5.30;99.90;;;;;;5073956;28;20166;-72
2022/01/27 06:43:18;;;;;;;0.60;0.50;;;5.30;99.90;;;;;;5073968;28;20194;-73
2022/01/27 06:45:43;;;;;;;0.97;0.97;;;5.30;99.90;;;;;;5073732;28;20174;-72
2022/01/27 06:48:09;;;;;;;0.60;0.60;;;5.30;99.90;;;;;;5073592;28;20202;-72
2022/01/27 06:50:37;;;;;;;1.10;0.83;;;5.30;99.90;;;;;;5073809;28;20644;-74
2022/01/27 06:53:02;;;;;;;1.83;1.73;;;5.30;99.90;;;;;;5074478;28;20174;-74
2022/01/27 06:55:29;;;;;;;9.00;1.57;;;5.30;99.90;;;;;;5074819;28;20432;-73
2022/01/27 06:57:54;;;;;;;0.73;0.73;;;5.30;99.90;;;;;;5074550;28;20188;-73
2022/01/27 07:00:20;;;;;;;3.60;1.40;;;5.30;99.90;;;;;;5073701;28;20397;-73
2022/01/27 07:02:45;;;;;;;0.90;0.90;;;5.30;99.90;;;;;;5074620;28;20619;-73
2022/01/27 07:05:15;;;;;;;1.03;1.03;;;5.30;99.90;;;;;;5074149;28;20198;-74
2022/01/27 07:07:40;;;;;;;0.60;0.50;;;5.20;99.90;;;;;;5054378;28;20228;-74
2022/01/27 07:10:06;;;;;;;2.10;2.00;;;5.30;99.90;;;;;;5054346;28;20504;-73
2022/01/27 07:12:32;;;;;;;2.50;2.30;;;5.20;99.90;;;;;;5054733;28;20178;-73
2022/01/27 07:14:58;;;;;;;1.27;1.27;;;5.20;99.90;;;;;;5069994;28;20417;-73
2022/01/27 07:17:24;;;;;;;1.17;0.93;;;5.30;99.90;;;;;;5071995;28;20194;-72
2022/01/27 07:19:49;;;;;;;2.03;1.93;;;5.30;99.90;;;;;;5072953;28;20407;-71
2022/01/27 07:22:15;;;;;;;0.77;0.77;;;5.30;99.90;;;;;;5073463;28;20404;-72
2022/01/27 07:24:40;;;;;;;0.90;0.90;;;5.30;99.90;;;;;;5074457;28;20205;-72
2022/01/27 07:27:07;;;;;;;1.17;1.07;;;5.30;99.90;;;;;;5074390;28;20178;-72
2022/01/27 07:29:33;;;;;;;0.77;0.77;;;5.40;99.90;;;;;;5074001;28;20839;-72
2022/01/27 07:31:59;;;;;;;1.13;1.03;;;5.40;99.90;;;;;;5089693;28;20440;-72
2022/01/27 07:34:24;;;;;;;0.70;0.70;;;5.40;99.90;;;;;;5073633;28;20790;-73
2022/01/27 07:36:54;;;;;;;0.77;0.77;;;5.40;99.90;;;;;;5073688;28;20177;-72
2022/01/27 07:39:20;;;;;;;2.80;1.03;;;5.40;99.90;;;;;;5072894;28;20678;-71
2022/01/27 07:41:46;;;;;;;3.17;2.87;;;5.40;99.90;;;;;;5072933;28;20400;-72
2022/01/27 07:44:12;;;;;;;0.70;0.67;;;5.50;99.90;;;;;;5073224;28;20216;-72
2022/01/27 07:46:37;;;;;;;1.37;1.07;;;5.60;99.90;;;;;;5073504;28;20413;-72
2022/01/27 07:49:03;;;;;;;0.70;0.70;;;5.60;99.90;;;;;;5072490;28;20553;-72
2022/01/27 07:51:29;;;;;;;0.70;0.70;;;5.70;99.90;;;;;;5073017;28;20166;-72
2022/01/27 07:53:55;;;;;;;1.13;1.13;;;5.80;99.90;;;;;;5073188;28;20261;-72
2022/01/27 07:56:20;;;;;;;1.93;1.83;;;5.90;99.90;;;;;;5072610;28;20235;-72
2022/01/27 07:58:46;;;;;;;0.77;0.77;;;6.00;99.90;;;;;;5073736;28;20194;-72
2022/01/27 08:01:11;;;;;;;2.20;2.10;;;6.10;99.90;;;;;;5073098;28;20166;-71
2022/01/27 08:03:37;;;;;;;0.80;0.70;;;6.20;99.90;;;;;;5071924;28;20221;-72
2022/01/27 08:06:06;;;;;;;0.67;0.60;;;6.20;99.90;;;;;;5073072;28;20166;-72
2022/01/27 08:08:33;;;;;;;2.10;1.90;;;6.20;99.90;;;;;;5072921;28;20436;-72
2022/01/27 08:10:59;;;;;;;0.97;0.87;;;6.20;99.90;;;;;;5073030;28;21094;-73
2022/01/27 08:13:25;;;;;;;0.87;0.87;;;6.30;99.90;;;;;;5073250;28;20472;-72
2022/01/27 08:15:51;;;;;;;1.67;1.57;;;6.30;99.90;;;;;;5072946;28;20412;-72
2022/01/27 08:18:17;;;;;;;0.80;0.70;;;6.40;99.90;;;;;;5073487;28;20436;-73
2022/01/27 08:20:44;;;;;;;1.10;0.77;;;6.50;99.90;;;;;;5073151;28;20404;-73
2022/01/27 08:23:13;;;;;;;1.40;1.13;;;6.60;99.90;;;;;;5072851;28;20197;-73
2022/01/27 08:25:38;;;;;;;1.77;1.67;;;6.60;99.90;;;;;;5072593;28;20417;-71
2022/01/27 08:28:07;;;;;;;3.13;2.93;;;6.50;99.90;;;;;;5072938;28;20511;-72
2022/01/27 08:30:40;;;;;;;0.80;0.80;;;6.50;99.90;;;;;;5072680;28;20253;-72
2022/01/27 08:33:13;;;;;;;1.57;1.17;;;6.50;99.90;;;;;;5072838;28;20412;-72
2022/01/27 08:35:39;;;;;;;0.60;0.50;;;6.50;99.90;;;;;;5088452;28;20425;-72
2022/01/27 08:38:04;;;;;;;1.70;1.60;;;6.50;99.90;;;;;;5072275;28;20429;-72
2022/01/27 08:40:30;;;;;;;1.30;1.20;;;6.50;99.90;;;;;;5071147;28;20178;-71
2022/01/27 08:42:57;;;;;;;3.10;2.90;;;6.40;99.90;;;;;;5071804;28;20173;-72
2022/01/27 08:45:24;;;;;;;0.80;0.80;;;6.40;99.90;;;;;;5071636;28;20565;-72
2022/01/27 08:47:51;;;;;;;0.67;0.60;;;6.40;99.90;;;;;;5071628;28;20803;-71
2022/01/27 08:50:19;;;;;;;1.77;1.67;;;6.40;99.90;;;;;;5071072;28;20474;-72
2022/01/27 08:52:45;;;;;;;0.77;0.77;;;6.40;99.90;;;;;;5070413;28;20940;-72
2022/01/27 08:55:12;;;;;;;0.80;0.80;;;6.40;99.90;;;;;;5071646;28;20424;-72
2022/01/27 08:57:38;;;;;;;0.67;0.60;;;6.40;99.90;;;;;;5071696;28;20240;-71
2022/01/27 09:00:10;;;;;;;0.90;0.90;;;6.50;99.90;;;;;;5071222;28;20424;-72
2022/01/27 09:02:35;;;;;;;1.30;0.90;;;6.40;99.90;;;;;;5071214;28;20954;-71
2022/01/27 09:05:01;;;;;;;1.37;1.30;;;6.40;99.90;;;;;;5071387;28;20452;-72
2022/01/27 09:07:27;;;;;;;0.60;0.50;;;6.50;99.90;;;;;;5071149;28;20190;-71
2022/01/27 09:09:52;;;;;;;2.37;2.27;;;6.50;99.90;;;;;;5071075;28;20170;-71
2022/01/27 09:12:18;;;;;;;1.37;1.00;;;6.60;99.90;;;;;;5071297;28;20567;-72
2022/01/27 09:14:44;;;;;;;1.00;1.00;;;6.60;99.90;;;;;;5070802;28;20220;-72
2022/01/27 09:17:10;;;;;;;0.80;0.73;;;6.60;99.90;;;;;;5066419;28;20185;-72
2022/01/27 09:19:39;;;;;;;0.67;0.50;;;6.50;99.90;;;;;;5071144;28;20179;-71
2022/01/27 09:22:08;;;;;;;0.60;0.60;;;6.40;99.90;;;;;;5071979;28;20504;-72
2022/01/27 09:24:50;;;;;;;0.90;0.90;;;6.30;99.90;;;;;;5075825;28;20448;-72
2022/01/27 09:27:16;;;;;;;1.77;1.67;;;6.30;99.90;;;;;;5065640;28;20416;-72
2022/01/27 09:29:42;;;;;;;2.00;1.90;;;6.30;99.90;;;;;;5074749;28;20806;-72
2022/01/27 09:32:09;;;;;;;2.07;1.97;;;6.20;99.90;;;;;;5074844;28;20420;-72
2022/01/27 09:34:35;;;;;;;1.27;1.17;;;6.20;99.90;;;;;;5074808;28;20776;-72
2022/01/27 09:37:02;;;;;;;1.53;1.07;;;6.20;99.90;;;;;;5072394;28;20438;-72
2022/01/27 09:39:32;;;;;;;2.60;1.17;;;6.20;99.90;;;;;;5074682;28;20830;-72
2022/01/27 09:41:59;;;;;;;5.13;1.33;;;6.10;99.90;;;;;;5074633;28;20504;-72
2022/01/27 09:44:29;;;;;;;1.00;1.00;;;6.00;99.90;;;;;;5074339;28;20460;-72
2022/01/27 09:46:57;;;;;;;1.57;1.13;;;6.00;99.90;;;;;;5074599;28;20404;-71
2022/01/27 09:49:33;;;;;;;0.67;0.53;;;5.90;99.90;;;;;;5072638;28;20416;-72
2022/01/27 09:51:59;;;;;;;0.60;0.50;;;5.90;99.90;;;;;;5074070;28;20455;-72
2022/01/27 09:54:25;;;;;;;0.60;0.60;;;5.90;99.90;;;;;;5081835;28;20467;-72
2022/01/27 09:56:53;;;;;;;0.60;0.60;;;5.90;99.90;;;;;;5074350;28;20444;-71
2022/01/27 09:59:19;;;;;;;1.33;1.33;;;5.90;99.90;;;;;;5074217;28;20196;-72
2022/01/27 10:01:54;;;;;;;1.23;1.13;;;5.80;99.90;;;;;;5074068;28;20409;-71
2022/01/27 10:04:19;;;;;;;0.83;0.83;;;5.90;99.90;;;;;;5073551;28;20887;-71
2022/01/27 10:06:45;;;;;;;1.17;0.93;;;5.80;99.90;;;;;;5074658;28;20435;-72
2022/01/27 10:09:14;;;;;;;0.93;0.93;;;5.90;99.90;;;;;;5073931;28;20194;-72
2022/01/27 10:11:40;;;;;;;0.93;0.93;;;6.00;99.90;;;;;;5074177;28;20436;-71
2022/01/27 10:14:33;;;;;;;2.03;1.93;;;6.10;99.90;;;;;;5074190;28;20447;-71
2022/01/27 10:17:01;;;;;;;0.90;0.90;;;6.10;99.90;;;;;;5074151;28;20174;-71
2022/01/27 10:19:27;;;;;;;0.73;0.73;;;6.20;99.90;;;;;;5073854;28;20499;-71
2022/01/27 10:22:22;;;;;;;1.97;1.87;;;6.30;99.90;;;;;;5074015;28;20484;-71
2022/01/27 10:24:59;;;;;;;0.60;0.60;;;6.40;99.90;;;;;;5066208;28;20206;-71
2022/01/27 10:27:34;;;;;;;0.60;0.60;;;6.40;99.90;;;;;;5073978;28;20416;-72
2022/01/27 10:32:47;;;;;;;0.60;0.60;;;6.30;99.90;;;;;;5071299;28;20500;-72
2022/01/27 10:35:15;;;;;;;0.90;0.90;;;6.30;99.90;;;;;;5074187;28;20405;-72
2022/01/27 10:38:07;;;;;;;0.60;0.60;;;6.30;99.90;;;;;;5073712;28;20432;-71
2022/01/27 10:40:38;;;;;;;0.60;0.60;;;6.20;99.90;;;;;;5072710;28;20813;-70
2022/01/27 10:43:14;;;;;;;3.13;0.83;;;6.30;99.90;;;;;;5071561;28;20404;-72
2022/01/27 10:46:25;;;;;;;0.90;0.90;;;6.20;99.90;;;;;;5073899;28;20487;-72
2022/01/27 10:48:56;;;;;;;0.60;0.60;;;6.40;99.90;;;;;;5073008;28;20424;-72
2022/01/27 10:51:45;;;;;;;0.73;0.73;;;6.50;99.90;;;;;;5072622;28;20495;-72
2022/01/27 10:54:21;;;;;;;0.93;0.83;;;6.40;99.90;;;;;;5073695;28;20447;-71
2022/01/27 10:56:48;;;;;;;0.70;0.70;;;6.40;99.90;;;;;;5073465;28;20412;-71
2022/01/27 10:59:19;;;;;;;1.53;1.43;;;6.60;99.90;;;;;;5073043;28;20972;-71
2022/01/27 11:01:48;;;;;;;1.23;1.23;;;6.60;99.90;;;;;;5073250;28;20404;-72
2022/01/27 11:04:15;;;;;;;1.20;1.10;;;6.70;99.90;;;;;;5073339;28;20455;-72
2022/01/27 11:06:59;;;;;;;0.60;0.60;;;6.60;99.90;;;;;;5072992;28;20421;-72
2022/01/27 11:09:25;;;;;;;0.60;0.60;;;6.70;99.90;;;;;;5072797;28;20423;-71
2022/01/27 11:11:52;;;;;;;0.97;0.97;;;6.60;99.90;;;;;;5072438;28;20420;-72
2022/01/27 11:14:19;;;;;;;0.70;0.70;;;6.50;99.90;;;;;;5072287;28;20494;-71
2022/01/27 11:16:47;;;;;;;0.60;0.60;;;6.40;99.90;;;;;;5071650;28;20951;-72
2022/01/27 11:19:33;;;;;;;1.40;1.27;;;6.50;99.90;;;;;;5074262;28;20420;-72
2022/01/27 11:24:43;;;;;;;1.10;1.00;;;6.60;99.90;;;;;;5071603;28;21061;-72
2022/01/27 11:27:09;;;;;;;0.60;0.60;;;6.70;99.90;;;;;;5071811;28;20409;-72
2022/01/27 11:29:47;;;;;;;0.63;0.63;;;6.70;99.90;;;;;;5074150;28;20431;-72
2022/01/27 11:32:27;;;;;;;0.60;0.50;;;6.80;99.90;;;;;;5071660;28;20492;-72
2022/01/27 11:34:55;;;;;;;2.03;1.73;;;6.90;99.90;;;;;;5074565;28;20408;-70
2022/01/27 11:37:38;;;;;;;1.50;0.90;;;6.90;99.90;;;;;;5074935;28;20837;-72
2022/01/27 11:40:07;;;;;;;0.87;0.80;;;7.00;99.90;;;;;;5068236;28;20462;-71
2022/01/27 11:42:37;;;;;;;1.87;1.47;;;7.10;99.90;;;;;;5074524;28;20423;-71
2022/01/27 11:45:21;;;;;;;1.57;1.37;;;7.00;99.90;;;;;;5074707;28;20475;-71
2022/01/27 11:47:51;;;;;;;0.60;0.60;;;7.00;99.90;;;;;;5071591;28;20432;-70
2022/01/27 11:50:33;;;;;;;0.60;0.60;;;7.10;99.90;;;;;;5065909;28;20419;-72
2022/01/27 11:53:07;;;;;;;3.40;2.10;;;7.10;99.90;;;;;;5073626;28;20507;-72
2022/01/27 11:55:43;;;;;;;0.70;0.70;;;7.10;99.90;;;;;;5074481;28;20484;-72
2022/01/27 11:58:15;;;;;;;1.63;0.80;;;7.00;99.90;;;;;;5073733;28;20523;-72
2022/01/27 12:00:59;;;;;;;0.60;0.60;;;7.10;99.90;;;;;;5073625;28;20424;-72
2022/01/27 12:03:26;;;;;;;0.70;0.70;;;7.00;99.90;;;;;;5071492;28;20431;-72
2022/01/27 12:06:12;;;;;;;1.63;1.43;;;6.90;99.90;;;;;;5074100;28;20873;-72
2022/01/27 12:08:38;;;;;;;4.63;1.07;;;7.00;99.90;;;;;;5073856;28;20444;-72
2022/01/27 12:11:07;;;;;;;0.60;0.60;;;7.00;99.90;;;;;;5073190;28;20990;-72
2022/01/27 12:13:40;;;;;;;0.70;0.67;;;6.90;99.90;;;;;;5074118;28;20681;-70
2022/01/27 12:16:26;;;;;;;1.40;1.00;;;6.90;99.90;;;;;;5070630;28;20496;-70
2022/01/27 12:18:58;;;;;;;1.10;1.00;;;6.80;99.90;;;;;;5069822;28;20470;-71
2022/01/27 12:21:31;;;;;;;0.60;0.60;;;6.90;99.90;;;;;;5069209;28;20507;-71
2022/01/27 12:24:17;;;;;;;0.83;0.83;;;6.90;99.90;;;;;;5073258;28;20436;-71
2022/01/27 12:26:47;;;;;;;0.60;0.60;;;6.80;99.90;;;;;;5089110;28;20917;-71
2022/01/27 12:29:22;;;;;;;0.87;0.87;;;6.80;99.90;;;;;;5072960;28;20428;-71
2022/01/27 12:31:49;;;;;;;1.03;0.93;;;6.90;99.90;;;;;;5071089;28;20416;-71
2022/01/27 12:34:14;;;;;;;1.53;1.43;;;7.00;99.90;;;;;;5071366;28;20963;-71
2022/01/27 12:37:02;;;;;;;1.17;1.10;;;7.00;99.90;;;;;;5056351;28;20451;-71
2022/01/27 12:39:38;;;;;;;0.80;0.73;;;6.90;99.90;;;;;;5072052;28;20638;-70
2022/01/27 12:42:07;;;;;;;0.60;0.57;;;6.90;99.90;;;;;;5075704;28;20409;-70
2022/01/27 12:44:34;;;;;;;0.70;0.70;;;6.90;99.90;;;;;;5072666;28;20495;-71
2022/01/27 12:47:18;;;;;;;0.60;0.53;;;6.90;99.90;;;;;;5074665;28;20456;-71
2022/01/27 12:49:48;;;;;;;0.60;0.50;;;6.90;99.90;;;;;;5072579;28;20438;-71
2022/01/27 12:52:25;;;;;;;0.60;0.60;;;6.90;99.90;;;;;;5072327;28;20416;-71
2022/01/27 12:54:51;;;;;;;0.70;0.70;;;6.90;99.90;;;;;;5073240;28;20556;-71
2022/01/27 12:57:27;;;;;;;0.90;0.90;;;6.90;99.90;;;;;;5074921;28;20424;-71
2022/01/27 12:59:55;;;;;;;0.60;0.53;;;6.90;99.90;;;;;;5077067;28;20408;-70
2022/01/27 13:02:23;;;;;;;1.53;1.43;;;6.90;99.90;;;;;;5077093;28;20404;-71
2022/01/27 13:04:52;;;;;;;0.70;0.70;;;7.00;99.90;;;;;;5077017;28;20953;-71
2022/01/27 13:07:20;;;;;;;1.67;1.57;;;7.10;99.90;;;;;;5076700;28;20436;-71
2022/01/27 13:10:01;;;;;;;0.80;0.80;;;7.10;99.90;;;;;;5076739;28;20404;-71
2022/01/27 13:12:36;;;;;;;0.73;0.73;;;7.20;99.90;;;;;;5076965;28;20415;-71
2022/01/27 13:17:34;;;;;;;0.80;0.60;;;7.20;99.90;;;;;;5076463;28;20440;-71
2022/01/27 13:20:41;;;;;;;2.23;1.07;;;7.20;99.90;;;;;;5076635;28;20401;-71
2022/01/27 13:25:52;;;;;;;0.60;0.60;;;7.30;99.90;;;;;;5076970;28;20416;-71
2022/01/27 13:28:22;;;;;;;0.67;0.67;;;7.30;99.90;;;;;;5076736;28;20545;-71
2022/01/27 13:30:59;;;;;;;2.70;0.80;;;7.30;99.90;;;;;;5092477;28;20401;-70
2022/01/27 13:33:26;;;;;;;2.03;1.57;;;7.30;99.90;;;;;;5075642;28;20490;-71
2022/01/27 13:35:54;;;;;;;1.07;0.97;;;7.30;99.90;;;;;;5095770;28;20407;-70
2022/01/27 13:38:28;;;;;;;0.70;0.70;;;7.30;99.90;;;;;;5093631;28;20535;-70
2022/01/27 13:41:24;;;;;;;0.70;0.70;;;7.40;99.90;;;;;;5092072;28;20407;-71
2022/01/27 13:44:11;;;;;;;0.60;0.60;;;7.40;99.90;;;;;;5092012;28;20497;-71
2022/01/27 13:46:54;;;;;;;0.60;0.60;;;7.40;99.90;;;;;;5069090;28;20408;-71
2022/01/27 13:49:31;;;;;;;0.60;0.60;;;7.40;99.90;;;;;;5074859;28;20428;-71
2022/01/27 13:52:13;;;;;;;1.27;1.17;;;7.40;99.90;;;;;;5056262;28;20631;-70
2022/01/27 13:54:42;;;;;;;0.60;0.57;;;7.40;99.90;;;;;;5075418;28;20447;-70